Time;durP1;ratioP1;P1;durP2;ratioP2;P2;SDS_P1;SDS_P2;PMS_P1;PMS_P2;Temp;Humidity;BMP_temperature;BMP_pressure;BME280_temperature;BME280_humidity;BME280_pressure;Samples;Min_cycle;Max_cycle;Signal;HPM_P1;HPM_P2
2022/01/29 00:01:33;;;;;;;3.07;2.37;;;;;;;2.08;74.93;95024.38;5052442;28;20177;-60
2022/01/29 00:03:58;;;;;;;3.47;2.10;;;;;;;2.13;74.85;95022.44;5052842;28;20270;-67
2022/01/29 00:06:24;;;;;;;3.40;2.70;;;;;;;2.06;74.74;95029.41;5034383;28;20316;-60
2022/01/29 00:08:51;;;;;;;2.40;1.73;;;;;;;2.15;74.42;95039.03;5052710;28;20207;-60
2022/01/29 00:11:17;;;;;;;6.83;2.87;;;;;;;2.11;75.13;95027.53;5052254;28;20178;-60
2022/01/29 00:13:42;;;;;;;4.03;2.30;;;;;;;2.05;74.77;95035.34;5052140;28;20206;-59
2022/01/29 00:16:08;;;;;;;4.87;2.50;;;;;;;2.15;75.85;95020.66;5051497;28;20261;-66
2022/01/29 00:18:34;;;;;;;3.83;2.43;;;;;;;2.04;75.74;95008.63;5034230;28;20217;-60
2022/01/29 00:21:08;;;;;;;3.07;2.20;;;;;;;2.05;76.24;95007.75;5035301;28;20678;-59
2022/01/29 00:23:33;;;;;;;3.17;2.07;;;;;;;2.01;76.94;95001.25;5034328;28;20205;-61
2022/01/29 00:26:00;;;;;;;4.27;2.30;;;;;;;1.93;77.10;94992.47;5052357;28;20185;-65
2022/01/29 00:28:27;;;;;;;4.47;2.73;;;;;;;1.96;77.47;94982.31;5034175;28;20213;-60
2022/01/29 00:30:52;;;;;;;4.00;2.50;;;;;;;1.97;77.46;94992.25;5052012;28;20272;-64
2022/01/29 00:33:18;;;;;;;4.10;2.27;;;;;;;2.02;78.31;94974.50;5052169;28;20228;-60
2022/01/29 00:35:43;;;;;;;4.23;2.37;;;;;;;1.91;78.41;94974.19;5052267;28;20231;-67
2022/01/29 00:38:08;;;;;;;4.77;2.87;;;;;;;1.88;78.44;94966.81;5051930;28;20197;-65
2022/01/29 00:40:36;;;;;;;4.30;2.63;;;;;;;1.92;78.92;94964.06;5017762;28;20189;-61
2022/01/29 00:43:04;;;;;;;4.73;2.90;;;;;;;1.91;78.97;94971.66;5051864;28;20217;-61
2022/01/29 00:45:29;;;;;;;11.13;2.80;;;;;;;1.87;78.81;94967.69;5033985;28;20187;-65
2022/01/29 00:47:55;;;;;;;2.83;2.00;;;;;;;1.86;79.31;94961.06;5033971;28;20210;-69
2022/01/29 00:50:20;;;;;;;4.50;2.90;;;;;;;1.84;79.63;94962.84;5033823;28;20243;-59
2022/01/29 00:52:47;;;;;;;5.67;2.73;;;;;;;1.88;79.31;94957.59;5051621;28;20209;-67
2022/01/29 00:55:13;;;;;;;5.07;2.80;;;;;;;1.84;79.87;94952.81;5051671;28;20173;-60
2022/01/29 00:57:40;;;;;;;5.30;2.77;;;;;;;1.92;80.03;94950.75;5051476;28;20185;-61
2022/01/29 01:00:09;;;;;;;3.87;2.97;;;;;;;1.91;80.30;94939.09;5033643;28;20236;-64
2022/01/29 01:02:35;;;;;;;5.57;2.60;;;;;;;1.92;81.14;94929.00;5033671;28;20558;-66
2022/01/29 01:05:01;;;;;;;3.97;2.60;;;;;;;1.99;81.24;94929.50;5033707;28;20277;-59
2022/01/29 01:07:27;;;;;;;4.33;2.73;;;;;;;1.95;81.26;94928.03;5051440;28;20574;-60
2022/01/29 01:09:52;;;;;;;4.30;2.73;;;;;;;1.86;82.01;94906.72;5033707;28;20196;-66
2022/01/29 01:12:18;;;;;;;7.47;3.33;;;;;;;1.88;83.03;94897.44;5033546;28;20177;-58
2022/01/29 01:14:43;;;;;;;4.57;2.77;;;;;;;1.81;83.54;94893.63;5052022;28;20190;-58
2022/01/29 01:17:09;;;;;;;6.83;3.43;;;;;;;1.82;83.66;94895.22;5051517;28;20242;-60
2022/01/29 01:19:35;;;;;;;4.53;3.30;;;;;;;1.75;84.35;94898.09;5052088;28;20209;-59
2022/01/29 01:22:00;;;;;;;6.93;3.57;;;;;;;1.69;84.82;94887.50;5051603;28;20189;-65
2022/01/29 01:24:26;;;;;;;6.70;3.50;;;;;;;1.74;84.58;94881.44;5052003;28;20203;-59
2022/01/29 01:26:52;;;;;;;4.97;3.37;;;;;;;1.81;84.95;94881.09;5034823;28;20547;-59
2022/01/29 01:29:18;;;;;;;4.83;3.00;;;;;;;1.80;84.89;94876.16;5037766;28;20191;-61
2022/01/29 01:31:45;;;;;;;5.30;3.10;;;;;;;1.78;84.58;94878.72;5055382;28;20185;-69
2022/01/29 01:34:16;;;;;;;5.40;3.27;;;;;;;1.78;85.29;94872.91;5037958;28;20618;-69
2022/01/29 01:36:56;;;;;;;4.70;3.20;;;;;;;1.76;85.64;94874.69;5037432;28;20197;-61
2022/01/29 01:39:30;;;;;;;8.13;3.93;;;;;;;1.73;86.11;94869.78;5060113;23;20322;-65
2022/01/29 01:42:05;;;;;;;6.17;3.27;;;;;;;1.67;86.42;94869.22;5055196;28;20264;-64
2022/01/29 01:44:43;;;;;;;3.77;2.63;;;;;;;1.62;86.45;94868.59;5055802;28;20240;-61
2022/01/29 01:47:09;;;;;;;4.60;2.97;;;;;;;1.60;87.02;94872.88;5055227;28;20158;-60
2022/01/29 01:49:35;;;;;;;5.13;2.83;;;;;;;1.62;86.64;94881.13;5055801;28;20305;-67
2022/01/29 01:52:01;;;;;;;3.60;2.83;;;;;;;1.60;86.96;94874.56;5055438;28;20209;-59
2022/01/29 01:54:27;;;;;;;4.33;3.10;;;;;;;1.65;87.68;94881.00;5037465;28;20289;-59
2022/01/29 01:56:53;;;;;;;3.43;2.93;;;;;;;1.57;87.82;94880.53;5037555;28;20166;-60
2022/01/29 01:59:18;;;;;;;4.67;3.60;;;;;;;1.51;89.02;94873.31;5055468;28;20213;-59
2022/01/29 02:01:44;;;;;;;4.80;3.17;;;;;;;1.49;89.11;94877.59;5037021;28;20655;-66
2022/01/29 02:04:09;;;;;;;7.20;3.43;;;;;;;1.53;88.92;94879.06;5055118;28;20227;-67
2022/01/29 02:06:35;;;;;;;3.53;3.07;;;;;;;1.58;89.15;94872.13;5036960;28;20185;-64
2022/01/29 02:09:01;;;;;;;5.83;3.27;;;;;;;1.54;89.49;94888.19;5036993;28;20201;-58
2022/01/29 02:11:28;;;;;;;6.23;3.70;;;;;;;1.50;89.83;94891.72;5055026;28;20199;-61
2022/01/29 02:13:56;;;;;;;6.90;3.77;;;;;;;1.47;89.89;94879.34;5036909;28;20241;-60
2022/01/29 02:16:22;;;;;;;4.23;3.50;;;;;;;1.58;90.23;94893.84;5036813;28;20182;-68
2022/01/29 02:18:47;;;;;;;6.27;3.83;;;;;;;1.61;89.94;94897.06;5036511;28;20217;-67
2022/01/29 02:21:19;;;;;;;5.27;4.00;;;;;;;1.49;90.47;94891.78;5054607;28;20185;-64
2022/01/29 02:23:44;;;;;;;6.17;3.90;;;;;;;1.50;90.55;94899.22;5054729;28;20213;-59
2022/01/29 02:26:10;;;;;;;7.63;4.10;;;;;;;1.51;91.46;94905.06;5054610;28;20173;-65
2022/01/29 02:28:35;;;;;;;5.00;3.43;;;;;;;1.56;91.23;94898.94;5054596;28;20219;-59
2022/01/29 02:31:02;;;;;;;5.83;3.87;;;;;;;1.48;91.10;94908.50;5054351;28;20175;-60
2022/01/29 02:33:35;;;;;;;4.97;3.27;;;;;;;1.47;91.34;94913.59;5036475;28;20213;-63
2022/01/29 02:36:02;;;;;;;6.00;3.37;;;;;;;1.41;92.59;94904.66;5036194;28;20197;-63
2022/01/29 02:38:28;;;;;;;6.17;3.90;;;;;;;1.43;92.32;94907.09;5053422;28;20276;-60
2022/01/29 02:41:02;;;;;;;4.63;3.30;;;;;;;1.46;92.31;94905.25;5054588;28;20178;-60
2022/01/29 02:43:40;;;;;;;5.77;3.23;;;;;;;1.55;91.68;94902.34;5054295;28;20251;-60
2022/01/29 02:46:19;;;;;;;4.60;3.20;;;;;;;1.47;91.61;94906.91;5021409;28;20181;-65
2022/01/29 02:48:56;;;;;;;3.53;3.20;;;;;;;1.46;91.94;94911.94;5054239;28;20558;-61
2022/01/29 02:51:23;;;;;;;5.30;3.37;;;;;;;1.48;91.25;94907.69;5036058;28;20256;-59
2022/01/29 02:53:48;;;;;;;4.57;3.17;;;;;;;1.42;91.83;94902.97;5054241;28;20694;-60
2022/01/29 02:56:14;;;;;;;6.53;3.53;;;;;;;1.43;91.64;94912.09;5036188;28;20610;-64
2022/01/29 02:58:40;;;;;;;4.40;3.30;;;;;;;1.47;91.15;94919.41;5053920;28;20237;-65
2022/01/29 03:01:07;;;;;;;5.70;3.77;;;;;;;1.44;91.26;94913.72;5053888;28;20184;-64
2022/01/29 03:03:33;;;;;;;7.67;3.20;;;;;;;1.47;91.74;94911.09;5035933;28;20299;-66
2022/01/29 03:06:00;;;;;;;4.70;3.30;;;;;;;1.46;91.97;94902.75;5035994;28;20256;-59
2022/01/29 03:08:25;;;;;;;5.57;3.77;;;;;;;1.41;91.79;94904.66;5053977;28;20617;-64
2022/01/29 03:10:50;;;;;;;4.30;3.07;;;;;;;1.45;91.91;94901.16;5035897;28;20220;-60
2022/01/29 03:13:16;;;;;;;5.40;3.80;;;;;;;1.41;92.56;94904.66;5053684;28;20210;-58
2022/01/29 03:15:42;;;;;;;5.53;3.13;;;;;;;1.39;91.92;94903.09;5035806;28;20193;-66
2022/01/29 03:18:07;;;;;;;4.87;3.43;;;;;;;1.44;90.47;94916.22;5035745;28;20201;-66
2022/01/29 03:20:33;;;;;;;6.90;3.03;;;;;;;1.45;90.48;94905.34;5054118;28;20214;-69
2022/01/29 03:22:59;;;;;;;6.40;3.47;;;;;;;1.36;90.08;94911.56;5036467;28;20765;-65
2022/01/29 03:25:24;;;;;;;5.03;3.70;;;;;;;1.32;89.78;94915.09;5054049;28;20173;-65
2022/01/29 03:27:57;;;;;;;4.90;3.47;;;;;;;1.32;90.03;94916.78;5053467;28;20517;-60
2022/01/29 03:30:23;;;;;;;4.63;3.40;;;;;;;1.34;89.32;94920.84;5053222;28;20651;-65
2022/01/29 03:32:48;;;;;;;6.77;3.70;;;;;;;1.34;88.99;94928.34;5035306;28;20228;-67
2022/01/29 03:35:16;;;;;;;4.40;2.70;;;;;;;1.35;87.99;94935.00;5035269;28;20239;-59
2022/01/29 03:37:41;;;;;;;5.70;2.80;;;;;;;1.35;88.10;94942.50;5052810;28;21321;-59
2022/01/29 03:40:08;;;;;;;6.47;2.90;;;;;;;1.37;87.76;94943.25;5053135;28;20197;-60
2022/01/29 03:42:41;;;;;;;7.30;3.30;;;;;;;1.42;86.60;94956.38;5035031;28;20189;-58
2022/01/29 03:45:09;;;;;;;3.80;2.83;;;;;;;1.37;85.96;94965.78;5053697;28;20222;-60
2022/01/29 03:47:35;;;;;;;3.53;2.87;;;;;;;1.38;86.16;94952.38;5065600;23;20233;-66
2022/01/29 03:50:00;;;;;;;4.90;2.10;;;;;;;1.40;85.52;94967.31;5036126;28;20324;-60
2022/01/29 03:52:26;;;;;;;5.43;2.93;;;;;;;1.35;85.94;94955.03;5053912;28;20210;-63
2022/01/29 03:54:52;;;;;;;3.53;2.60;;;;;;;1.35;86.23;94951.69;5053483;28;20177;-60
2022/01/29 03:57:18;;;;;;;2.77;2.40;;;;;;;1.39;86.40;94951.50;5053636;28;20189;-68
2022/01/29 03:59:43;;;;;;;3.97;2.93;;;;;;;1.40;86.49;94945.59;5018935;28;20217;-65
2022/01/29 04:02:09;;;;;;;4.27;3.17;;;;;;;1.33;86.58;94949.28;5053551;28;20506;-69
2022/01/29 04:04:34;;;;;;;3.47;2.40;;;;;;;1.27;86.93;94934.50;5035074;28;20792;-60
2022/01/29 04:07:06;;;;;;;3.50;2.40;;;;;;;1.38;86.89;94934.84;5018378;28;20192;-66
2022/01/29 04:09:32;;;;;;;3.27;2.37;;;;;;;1.36;87.40;94935.78;5034430;28;20204;-60
2022/01/29 04:11:57;;;;;;;4.20;2.60;;;;;;;1.30;88.11;94914.34;5018216;28;20276;-67
2022/01/29 04:14:23;;;;;;;3.43;2.90;;;;;;;1.37;88.46;94917.38;5052383;28;20280;-59
2022/01/29 04:16:48;;;;;;;3.83;2.57;;;;;;;1.32;88.51;94925.09;5052849;28;20197;-69
2022/01/29 04:19:14;;;;;;;3.90;2.97;;;;;;;1.29;89.22;94914.41;5034215;28;20293;-66
2022/01/29 04:21:43;;;;;;;2.53;2.30;;;;;;;1.26;89.02;94912.84;5052518;28;20189;-63
2022/01/29 04:24:09;;;;;;;4.17;2.80;;;;;;;1.24;89.41;94906.28;5052122;28;20243;-58
2022/01/29 04:26:35;;;;;;;3.53;2.87;;;;;;;1.19;90.17;94898.19;5034550;28;20213;-65
2022/01/29 04:29:05;;;;;;;5.07;3.00;;;;;;;1.18;90.25;94901.56;5052134;28;20641;-60
2022/01/29 04:31:40;;;;;;;4.17;2.43;;;;;;;1.23;89.81;94904.69;5034177;28;20242;-64
2022/01/29 04:34:06;;;;;;;6.83;2.87;;;;;;;1.20;89.70;94915.63;5034405;28;20239;-67
2022/01/29 04:36:31;;;;;;;2.80;2.50;;;;;;;1.23;89.04;94919.69;5052293;28;20182;-66
2022/01/29 04:38:57;;;;;;;4.60;2.53;;;;;;;1.25;89.51;94913.72;5033850;28;20215;-60
2022/01/29 04:41:22;;;;;;;3.87;2.73;;;;;;;1.21;89.16;94919.75;5052657;28;20208;-66
2022/01/29 04:43:48;;;;;;;3.80;2.53;;;;;;;1.21;88.41;94927.25;5052154;28;20693;-59
2022/01/29 04:46:14;;;;;;;4.40;2.80;;;;;;;1.25;88.34;94942.97;5034037;28;20185;-65
2022/01/29 04:48:39;;;;;;;4.10;2.80;;;;;;;1.22;88.62;94923.88;5033895;28;20232;-58
2022/01/29 04:51:06;;;;;;;7.13;2.90;;;;;;;1.26;87.71;94925.38;5051986;28;20174;-60
2022/01/29 04:53:31;;;;;;;3.77;2.00;;;;;;;1.28;86.62;94943.66;5051823;28;20198;-59
2022/01/29 04:55:57;;;;;;;4.83;2.57;;;;;;;1.32;86.52;94955.16;5051940;28;20196;-59
2022/01/29 04:58:22;;;;;;;3.43;2.40;;;;;;;1.34;86.24;94945.88;5051808;28;20201;-65
2022/01/29 05:00:48;;;;;;;3.77;2.60;;;;;;;1.32;86.60;94949.31;5052087;28;20656;-68
2022/01/29 05:03:14;;;;;;;3.33;2.27;;;;;;;1.32;86.54;94961.84;5033225;28;20212;-60
2022/01/29 05:05:42;;;;;;;3.47;2.50;;;;;;;1.26;87.15;94944.59;5033705;28;20231;-60
2022/01/29 05:08:08;;;;;;;4.57;3.00;;;;;;;1.24;86.87;94942.16;5051545;28;20318;-61
2022/01/29 05:10:34;;;;;;;3.03;2.57;;;;;;;1.26;87.59;94944.59;5051865;28;20189;-60
2022/01/29 05:13:04;;;;;;;4.70;2.50;;;;;;;1.29;87.36;94949.47;5051910;28;20264;-64
2022/01/29 05:28:52;;;;;;;4.30;2.90;;;;;;;1.18;90.82;94924.91;5051651;28;20228;-60
2022/01/29 05:31:17;;;;;;;4.07;3.33;;;;;;;1.19;91.11;94929.00;5051695;28;20274;-61
2022/01/29 05:33:43;;;;;;;6.10;3.40;;;;;;;1.18;91.17;94932.41;5033572;28;20205;-59
2022/01/29 05:36:08;;;;;;;4.17;2.90;;;;;;;1.12;91.98;94922.66;5051620;28;20186;-65
2022/01/29 05:38:34;;;;;;;3.43;2.83;;;;;;;1.14;92.67;94927.59;5033445;28;20695;-67
2022/01/29 05:41:01;;;;;;;4.50;3.20;;;;;;;1.23;92.45;94940.50;5033360;28;20181;-66
2022/01/29 05:43:26;;;;;;;5.87;3.50;;;;;;;1.23;92.83;94944.75;5051503;28;20197;-65
2022/01/29 05:45:52;;;;;;;6.03;4.57;;;;;;;1.16;93.24;94948.38;5051515;28;20230;-59
2022/01/29 05:48:17;;;;;;;6.40;3.60;;;;;;;1.28;93.50;94952.84;5051879;28;20210;-60
2022/01/29 05:50:43;;;;;;;7.27;4.10;;;;;;;1.21;93.51;94971.53;5051325;28;20193;-64
2022/01/29 05:53:08;;;;;;;4.80;3.60;;;;;;;1.23;93.16;94964.75;5051320;28;20685;-61
2022/01/29 05:55:34;;;;;;;5.90;3.87;;;;;;;1.29;93.19;94972.00;5051222;28;20186;-57
2022/01/29 05:57:59;;;;;;;4.60;3.47;;;;;;;1.24;93.88;94972.19;5051121;28;20206;-66
2022/01/29 06:00:25;;;;;;;6.90;4.20;;;;;;;1.30;93.90;94976.13;5051224;28;20197;-65
2022/01/29 06:03:08;;;;;;;5.43;3.93;;;;;;;1.28;94.30;94978.69;5051045;28;20204;-59
2022/01/29 06:05:34;;;;;;;6.00;4.13;;;;;;;1.26;93.62;94984.63;5021637;23;20274;-59
2022/01/29 06:08:00;;;;;;;5.87;3.93;;;;;;;1.23;94.21;94995.59;5033083;28;20212;-59
2022/01/29 06:10:26;;;;;;;6.50;4.43;;;;;;;1.17;94.67;94977.53;5033294;28;20185;-61
2022/01/29 06:13:09;;;;;;;5.93;3.77;;;;;;;1.17;95.75;94982.56;5051094;28;20744;-60
2022/01/29 06:15:42;;;;;;;6.53;3.50;;;;;;;1.23;95.33;94987.28;5054320;28;20193;-59
2022/01/29 06:18:12;;;;;;;5.93;4.07;;;;;;;1.12;96.21;94991.94;5054700;28;20201;-66
2022/01/29 06:20:38;;;;;;;5.03;3.90;;;;;;;1.12;96.71;94992.75;5036741;28;20303;-61
2022/01/29 06:23:04;;;;;;;5.10;4.27;;;;;;;1.12;96.81;94985.25;5054545;28;20562;-59
2022/01/29 06:25:30;;;;;;;7.37;4.20;;;;;;;1.19;96.46;94995.81;5055261;28;20193;-61
2022/01/29 06:27:56;;;;;;;6.33;4.30;;;;;;;1.24;96.04;95004.75;5054445;28;20263;-65
2022/01/29 06:30:21;;;;;;;8.37;4.40;;;;;;;1.18;96.38;94986.66;5054703;28;20183;-65
2022/01/29 06:32:47;;;;;;;7.33;4.73;;;;;;;1.20;96.38;94995.75;5053950;28;20197;-60
2022/01/29 06:35:13;;;;;;;5.60;4.03;;;;;;;1.24;96.04;94994.72;5054640;28;20222;-59
2022/01/29 06:37:39;;;;;;;6.27;3.90;;;;;;;1.20;95.65;95000.75;5054135;28;20190;-65
2022/01/29 06:40:07;;;;;;;6.90;4.10;;;;;;;1.09;96.35;94997.09;5054477;28;20217;-68
2022/01/29 06:42:34;;;;;;;7.07;4.80;;;;;;;1.10;96.73;94997.00;5053835;28;20178;-68
2022/01/29 06:45:00;;;;;;;5.77;4.03;;;;;;;1.12;96.45;95002.78;5036632;28;20185;-61
2022/01/29 06:47:26;;;;;;;5.70;3.97;;;;;;;1.15;96.06;95019.34;5053862;28;20177;-65
2022/01/29 06:49:51;;;;;;;5.07;4.13;;;;;;;1.23;95.40;95024.84;5054187;28;20232;-69
2022/01/29 06:52:17;;;;;;;7.33;4.03;;;;;;;1.19;95.90;95028.34;5053790;28;20178;-65
2022/01/29 06:54:42;;;;;;;5.37;4.10;;;;;;;1.26;95.30;95030.53;5019518;28;20212;-64
2022/01/29 06:57:08;;;;;;;6.53;4.00;;;;;;;1.32;94.50;95042.78;5053627;28;20194;-68
2022/01/29 06:59:33;;;;;;;5.87;4.00;;;;;;;1.39;94.39;95038.34;5035697;28;20217;-67
2022/01/29 07:01:59;;;;;;;6.67;4.47;;;;;;;1.34;94.12;95032.69;5035840;28;20169;-67
2022/01/29 07:04:24;;;;;;;5.87;4.23;;;;;;;1.36;95.15;95030.94;5053705;28;20679;-59
2022/01/29 07:06:50;;;;;;;5.40;4.10;;;;;;;1.34;94.34;95040.22;5052755;28;20243;-69
2022/01/29 07:09:16;;;;;;;5.60;3.43;;;;;;;1.45;94.55;95051.41;5052631;28;20633;-60
2022/01/29 07:11:43;;;;;;;8.13;3.33;;;;;;;1.53;93.68;95053.56;5052420;28;20253;-62
2022/01/29 07:14:15;;;;;;;4.67;3.47;;;;;;;1.50;93.55;95062.03;5034493;28;20209;-66
2022/01/29 07:16:40;;;;;;;5.73;4.30;;;;;;;1.37;94.41;95040.91;5052505;28;20252;-68
2022/01/29 07:19:06;;;;;;;6.37;4.57;;;;;;;1.46;94.11;95044.69;5052512;28;20646;-61
2022/01/29 07:21:32;;;;;;;4.87;4.00;;;;;;;1.51;93.71;95050.31;5052119;28;20181;-68
2022/01/29 07:23:57;;;;;;;6.73;4.93;;;;;;;1.49;94.86;95052.91;5052225;28;20205;-60
2022/01/29 07:26:23;;;;;;;10.23;5.07;;;;;;;1.63;94.54;95049.78;5052052;28;20192;-59
2022/01/29 07:28:49;;;;;;;6.90;4.43;;;;;;;1.54;94.04;95061.00;5052094;28;20233;-65
2022/01/29 07:31:14;;;;;;;7.80;5.00;;;;;;;1.55;94.01;95067.66;5052089;28;20201;-65
2022/01/29 07:33:39;;;;;;;8.03;3.97;;;;;;;1.50;94.40;95059.53;5052245;28;20220;-61
2022/01/29 07:36:06;;;;;;;5.00;3.67;;;;;;;1.53;93.94;95073.63;5052041;28;20181;-66
2022/01/29 07:38:32;;;;;;;4.77;3.20;;;;;;;1.76;93.92;95065.09;5051747;28;20275;-60
2022/01/29 07:40:57;;;;;;;6.53;4.10;;;;;;;1.62;93.44;95076.53;5034109;28;20606;-63
2022/01/29 07:43:23;;;;;;;5.43;4.07;;;;;;;1.58;93.91;95077.53;5051672;28;20197;-61
2022/01/29 07:45:48;;;;;;;5.27;3.87;;;;;;;1.76;93.88;95090.94;5052042;28;20705;-66
2022/01/29 07:48:14;;;;;;;7.80;4.30;;;;;;;1.75;93.20;95091.03;5051987;28;20684;-65
2022/01/29 07:50:39;;;;;;;5.47;4.10;;;;;;;1.66;92.74;95095.56;5052379;28;20196;-66
2022/01/29 07:53:06;;;;;;;4.63;3.93;;;;;;;1.62;93.66;95084.03;5034619;28;20228;-60
2022/01/29 07:55:32;;;;;;;6.00;4.30;;;;;;;1.65;92.95;95088.94;5034132;28;20213;-65
2022/01/29 07:57:59;;;;;;;8.60;5.03;;;;;;;1.64;93.33;95089.78;5034059;28;20292;-62
2022/01/29 08:00:25;;;;;;;6.13;4.30;;;;;;;1.74;93.30;95094.41;5052278;28;20659;-64
2022/01/29 08:02:51;;;;;;;6.53;4.23;;;;;;;1.74;93.58;95096.94;5033798;28;20704;-67
2022/01/29 08:05:16;;;;;;;9.67;4.73;;;;;;;1.75;93.55;95096.03;4661359;28;10789750;-61
2022/01/29 08:07:42;;;;;;;5.90;4.60;;;;;;;1.79;92.66;95102.53;5060575;23;20220;-65
2022/01/29 08:10:08;;;;;;;5.47;4.10;;;;;;;1.84;92.57;95103.16;5013030;28;20257;-61
2022/01/29 08:12:35;;;;;;;6.73;4.27;;;;;;;1.92;92.10;95118.69;5010838;28;20189;-65
2022/01/29 08:15:04;;;;;;;5.63;3.40;;;;;;;1.88;91.62;95110.47;4993539;28;20191;-61
2022/01/29 08:17:30;;;;;;;6.17;4.43;;;;;;;1.81;92.53;95105.78;4993014;28;20621;-68
2022/01/29 08:19:57;;;;;;;6.97;4.60;;;;;;;1.91;93.68;95094.47;4975385;28;20211;-62
2022/01/29 08:22:24;;;;;;;4.77;3.90;;;;;;;1.83;92.93;95106.53;4992807;28;20696;-65
2022/01/29 08:24:50;;;;;;;6.73;4.07;;;;;;;1.94;92.36;95114.41;4993033;28;20175;-68
2022/01/29 08:27:15;;;;;;;8.57;5.03;;;;;;;2.03;91.89;95104.78;4992792;28;20561;-64
2022/01/29 08:29:41;;;;;;;5.10;3.97;;;;;;;1.92;92.18;95098.63;4992865;28;20211;-67
2022/01/29 08:32:07;;;;;;;5.13;3.87;;;;;;;1.99;92.53;95100.78;4993060;28;20178;-62
2022/01/29 08:34:34;;;;;;;4.70;3.80;;;;;;;1.93;91.60;95121.13;4975768;28;20234;-64
2022/01/29 08:37:04;;;;;;;5.50;3.77;;;;;;;2.07;91.75;95123.00;4992423;28;20242;-66
2022/01/29 08:39:29;;;;;;;5.90;3.83;;;;;;;1.96;92.50;95107.63;4993227;28;20215;-59
2022/01/29 08:41:56;;;;;;;4.83;3.90;;;;;;;2.04;92.20;95095.56;4992951;28;20178;-62
2022/01/29 08:44:21;;;;;;;4.47;3.83;;;;;;;2.14;92.46;95117.63;4992992;28;20208;-66
2022/01/29 08:46:47;;;;;;;9.50;5.17;;;;;;;2.44;90.92;95125.50;4992700;28;20226;-69
2022/01/29 08:49:12;;;;;;;7.03;4.90;;;;;;;2.61;89.15;95154.84;4993106;28;20576;-67
2022/01/29 08:51:38;;;;;;;7.87;4.20;;;;;;;2.82;88.72;95148.81;4992789;28;20176;-65
2022/01/29 08:54:04;;;;;;;6.67;4.50;;;;;;;2.86;88.12;95163.66;4992442;28;20298;-64
2022/01/29 08:56:30;;;;;;;6.07;4.27;;;;;;;3.34;85.27;95203.22;4992564;28;20194;-65
2022/01/29 08:58:58;;;;;;;6.20;4.33;;;;;;;3.35;83.95;95194.81;4992666;28;20302;-59
2022/01/29 09:01:23;;;;;;;5.67;4.60;;;;;;;3.19;84.83;95172.09;4992215;28;20281;-61
2022/01/29 09:03:49;;;;;;;6.43;4.30;;;;;;;3.06;85.64;95180.28;4975309;28;20753;-59
2022/01/29 09:06:15;;;;;;;6.87;4.97;;;;;;;2.89;86.95;95150.94;4975134;28;20186;-64
2022/01/29 09:08:45;;;;;;;6.70;5.13;;;;;;;3.15;85.32;95172.34;4992384;28;20218;-66
2022/01/29 09:11:10;;;;;;;6.27;5.20;;;;;;;3.65;83.39;95205.06;4974774;28;20172;-66
2022/01/29 09:13:36;;;;;;;8.80;5.53;;;;;;;4.08;81.26;95219.66;4992356;28;20737;-64
2022/01/29 09:16:02;;;;;;;7.73;4.90;;;;;;;4.16;79.34;95217.56;4983535;23;20191;-65
2022/01/29 09:18:27;;;;;;;10.73;4.70;;;;;;;4.81;76.76;95277.88;5023461;28;20215;-65
2022/01/29 09:20:53;;;;;;;6.93;4.57;;;;;;;4.71;75.36;95271.69;5013764;28;20194;-59
2022/01/29 09:23:18;;;;;;;6.63;4.77;;;;;;;4.07;78.50;95203.75;5013566;28;20234;-60
2022/01/29 09:25:44;;;;;;;6.27;4.90;;;;;;;3.98;79.58;95188.31;5013724;28;20186;-68
2022/01/29 09:28:11;;;;;;;5.50;4.53;;;;;;;4.11;78.49;95190.13;5031289;28;20198;-65
2022/01/29 09:30:37;;;;;;;8.73;5.07;;;;;;;4.26;78.65;95203.63;5048794;23;20349;-60
2022/01/29 09:33:03;;;;;;;7.23;4.50;;;;;;;4.16;78.81;95200.75;5051023;28;20273;-61
2022/01/29 09:35:29;;;;;;;6.10;4.00;;;;;;;3.94;78.78;95189.34;5051487;28;20186;-60
2022/01/29 09:37:54;;;;;;;5.70;4.43;;;;;;;3.78;80.72;95159.13;5050930;28;20202;-67
2022/01/29 09:40:21;;;;;;;7.87;4.53;;;;;;;3.54;82.42;95132.69;5051330;28;20259;-67
2022/01/29 09:42:49;;;;;;;7.23;4.43;;;;;;;4.26;78.31;95216.19;5050978;28;20737;-65
2022/01/29 09:45:17;;;;;;;5.23;4.20;;;;;;;3.89;79.58;95186.25;5051545;28;20561;-65
2022/01/29 09:47:44;;;;;;;9.57;5.07;;;;;;;4.09;79.42;95191.06;5051593;28;20292;-64
2022/01/29 09:50:12;;;;;;;8.40;5.30;;;;;;;4.73;76.61;95237.19;5037230;28;20189;-59
2022/01/29 09:52:38;;;;;;;7.80;5.63;;;;;;;4.76;75.18;95257.19;5036726;28;20188;-59
2022/01/29 09:55:05;;;;;;;8.90;6.00;;;;;;;5.22;74.83;95278.22;5055285;28;20186;-60
2022/01/29 09:57:31;;;;;;;8.30;6.27;;;;;;;5.22;72.75;95300.88;5036786;28;20184;-59
2022/01/29 09:59:57;;;;;;;8.07;5.77;;;;;;;4.66;73.86;95258.56;5055069;28;20232;-59
2022/01/29 10:02:23;;;;;;;7.73;5.33;;;;;;;4.12;76.51;95213.56;5055028;28;20186;-65
2022/01/29 10:04:54;;;;;;;9.73;6.00;;;;;;;3.96;77.85;95193.38;5037046;28;20205;-66
2022/01/29 10:07:25;;;;;;;9.37;5.20;;;;;;;3.61;79.09;95164.19;5036882;28;20644;-60
2022/01/29 10:09:51;;;;;;;10.30;5.83;;;;;;;3.65;79.64;95154.78;5055057;28;20273;-65
2022/01/29 10:12:16;;;;;;;6.73;5.07;;;;;;;3.53;79.83;95163.75;5054850;28;20620;-63
2022/01/29 10:14:46;;;;;;;5.93;4.50;;;;;;;3.32;79.67;95148.03;5054816;28;20209;-58
2022/01/29 10:17:12;;;;;;;6.40;4.00;;;;;;;3.36;80.32;95162.06;5020297;28;20272;-61
2022/01/29 10:19:37;;;;;;;6.07;4.40;;;;;;;3.11;81.03;95144.03;5054550;28;20305;-65
2022/01/29 10:22:03;;;;;;;7.80;4.57;;;;;;;3.09;80.95;95138.25;5054539;28;20204;-65
2022/01/29 10:24:29;;;;;;;5.53;3.63;;;;;;;3.34;79.87;95166.34;5036550;28;20216;-65
2022/01/29 10:26:55;;;;;;;4.73;3.83;;;;;;;3.15;80.40;95159.78;5036990;28;20177;-65
2022/01/29 10:29:25;;;;;;;5.57;3.83;;;;;;;3.18;81.05;95145.38;5054445;28;20205;-65
2022/01/29 10:32:00;;;;;;;7.27;4.33;;;;;;;2.81;82.75;95110.34;5054258;28;20178;-67
2022/01/29 10:34:29;;;;;;;5.90;4.67;;;;;;;2.74;84.60;95109.00;5054327;28;20203;-64
2022/01/29 10:37:14;;;;;;;7.63;4.80;;;;;;;2.94;95.47;95093.81;5054333;28;20186;-67
2022/01/29 10:39:51;;;;;;;7.83;4.73;;;;;;;2.69;86.81;95137.72;5054293;28;20213;-65
2022/01/29 10:42:25;;;;;;;7.33;4.77;;;;;;;2.56;87.41;95125.72;5054338;28;20174;-66
2022/01/29 10:44:52;;;;;;;6.23;4.43;;;;;;;2.49;88.26;95119.38;5054302;28;20264;-61
2022/01/29 10:47:19;;;;;;;12.40;5.90;;;;;;;2.70;88.15;95117.56;5054107;28;20609;-65
2022/01/29 10:49:52;;;;;;;7.93;4.87;;;;;;;2.82;88.56;95127.03;5054352;28;20205;-66
2022/01/29 10:52:24;;;;;;;8.63;5.77;;;;;;;2.74;88.22;95123.25;5053911;28;20204;-65
2022/01/29 10:54:59;;;;;;;10.03;7.00;;;;;;;2.81;88.45;95132.13;5054528;28;20212;-63
2022/01/29 10:57:31;;;;;;;7.87;5.50;;;;;;;2.65;88.03;95137.03;5053836;28;20180;-67
2022/01/29 10:59:57;;;;;;;8.60;5.80;;;;;;;2.64;89.94;95112.03;5053010;28;20209;-64
2022/01/29 11:02:29;;;;;;;10.70;6.27;;;;;;;2.61;90.12;95117.97;5036169;28;20184;-61
2022/01/29 11:04:55;;;;;;;9.83;5.60;;;;;;;2.54;90.51;95109.13;5036410;28;20197;-67
2022/01/29 11:07:27;;;;;;;10.53;5.93;;;;;;;2.56;90.34;95109.88;5053572;28;20686;-68
2022/01/29 11:09:53;;;;;;;8.40;5.67;;;;;;;2.55;90.78;95101.53;5054159;28;20566;-66
2022/01/29 11:12:20;;;;;;;12.17;6.20;;;;;;;2.83;90.02;95112.78;5035729;28;20342;-66
2022/01/29 11:14:48;;;;;;;8.03;5.70;;;;;;;2.80;88.81;95118.75;5035918;28;20213;-67
2022/01/29 11:17:15;;;;;;;7.70;5.80;;;;;;;2.89;88.60;95095.72;5035573;28;20189;-61
2022/01/29 11:19:41;;;;;;;9.30;5.50;;;;;;;2.95;87.97;95118.03;5053691;28;20225;-60
2022/01/29 11:22:08;;;;;;;10.63;5.90;;;;;;;3.09;87.93;95120.69;5053689;28;20189;-59
2022/01/29 11:24:36;;;;;;;11.57;6.77;;;;;;;2.95;88.59;95110.50;5053744;28;20551;-64
2022/01/29 11:27:17;;;;;;;7.77;5.90;;;;;;;3.19;87.01;95121.84;5035383;28;20569;-66
2022/01/29 11:30:10;;;;;;;10.97;6.77;;;;;;;3.49;86.32;95136.34;5035409;28;20599;-64
2022/01/29 11:32:42;;;;;;;9.90;6.37;;;;;;;3.31;85.37;95151.41;5053391;28;20166;-66
2022/01/29 11:35:31;;;;;;;11.33;6.73;;;;;;;2.94;87.01;95123.13;5035564;28;20190;-70
2022/01/29 11:38:02;;;;;;;6.07;4.97;;;;;;;2.81;86.05;95132.13;5035275;28;20261;-62
2022/01/29 11:40:54;;;;;;;8.63;5.90;;;;;;;2.54;87.52;95102.41;5053500;28;20209;-61
2022/01/29 11:43:19;;;;;;;11.13;5.43;;;;;;;2.49;88.19;95108.53;5052999;28;20204;-67
2022/01/29 11:46:05;;;;;;;8.37;5.43;;;;;;;2.51;89.38;95100.03;5053371;28;20363;-67
2022/01/29 11:48:37;;;;;;;7.43;5.50;;;;;;;2.64;88.14;95097.78;5034672;28;20212;-61
2022/01/29 11:51:10;;;;;;;7.90;5.77;;;;;;;2.63;88.19;95098.66;5052942;28;20212;-61
2022/01/29 11:53:45;;;;;;;10.00;6.47;;;;;;;2.58;88.00;95108.09;5052824;28;20205;-60
2022/01/29 11:56:30;;;;;;;8.97;5.77;;;;;;;2.53;88.92;95100.78;5052847;28;20181;-61